»·PEaware :: ASA2054 KBZN-KPDX

ASA2054 :: KBZN-KPDX

FLIGHT INFORMATION

Flight Status: Arrived
Operator:
Alaska Airlines
More flights by this operator :: More flights under this callsign
Pilot: Will K. (13011)
Aircraft: AIRBUS A320
(A320)
More flights by this aircraft type
Origin: KBZN Gallatin
United States
Destination: KPDX Portland Intl
United States
More flights between these airports :: More routes between these airports
Route: TEERX4 HIA J16 PDT BAYYR HHOOD4
File this flight plan on PilotEdge
Remarks:
Altitude:
(Current/Filed)
34,000ft
Speed:
(Current/Filed)
330kts
Departed: 02-Sep-18 05:53 PM
Arrived: 02-Sep-18 07:13 PM
Distance/Time
Traveled:
479nm/1:20
Distance/Time
To Go:
Arrived

Flight Plot

Page will automatically refresh every two minutes.

Flight plan parsing failed; only flown route is shown


Map Options




Map Legend


Flown Route
Filed Route
Departure Airport
Arrival Airport
Navaid (VOR, NDB)
Fix

Horizontal Profiles

Position Reports

Time Latitude Longitude Heading Altitude Ground
Speed
02-Sep-18 17:26 45.778854 -111.160499 225 4457ft 0kts
02-Sep-18 17:27 45.778854 -111.160499 225 4457ft 0kts
02-Sep-18 17:28 45.778854 -111.160499 225 4457ft 0kts
02-Sep-18 17:29 45.778854 -111.160499 225 4457ft 0kts
02-Sep-18 17:30 45.778854 -111.160499 225 4457ft 0kts
02-Sep-18 17:31 45.778854 -111.160499 225 4457ft 0kts
02-Sep-18 17:32 45.778854 -111.160499 225 4457ft 0kts
02-Sep-18 17:33 45.778854 -111.160499 225 4457ft 0kts
02-Sep-18 17:34 45.778854 -111.160499 225 4457ft 0kts
02-Sep-18 17:35 45.778854 -111.160499 225 4457ft 0kts
02-Sep-18 17:36 45.778854 -111.160499 225 4457ft 0kts
02-Sep-18 17:37 45.778854 -111.160499 225 4457ft 0kts
02-Sep-18 17:38 45.778860 -111.160492 226 4457ft 1kts
02-Sep-18 17:39 45.779250 -111.160022 240 4456ft 0kts
02-Sep-18 17:40 45.779205 -111.159880 317 4456ft 0kts
02-Sep-18 17:41 45.779205 -111.159880 317 4456ft 0kts
02-Sep-18 17:42 45.779205 -111.159880 317 4456ft 0kts
02-Sep-18 17:43 45.779205 -111.159880 317 4456ft 0kts
02-Sep-18 17:45 45.779216 -111.159894 317 4456ft 1kts
02-Sep-18 17:46 45.780184 -111.159624 136 4454ft 6kts
02-Sep-18 17:47 45.777539 -111.155925 136 4460ft 11kts
02-Sep-18 17:48 45.774703 -111.151951 135 4465ft 17kts
02-Sep-18 17:49 45.771480 -111.147444 135 4470ft 17kts
02-Sep-18 17:50 45.769286 -111.144146 87 4473ft 3kts
02-Sep-18 17:51 45.769290 -111.144098 82 4473ft 0kts
02-Sep-18 17:52 45.769290 -111.144098 82 4473ft 0kts
02-Sep-18 17:53 45.770250 -111.142482 45 4471ft 11kts
02-Sep-18 17:54 45.770750 -111.142350 317 4470ft 1kts
02-Sep-18 17:55 45.796966 -111.179184 311 5781ft 202kts
02-Sep-18 17:56 45.789364 -111.263747 244 8264ft 274kts
02-Sep-18 17:57 45.752323 -111.366602 243 11120ft 316kts
02-Sep-18 17:58 45.730448 -111.494884 279 13519ft 354kts
02-Sep-18 17:59 45.746210 -111.635568 280 16407ft 364kts
02-Sep-18 18:00 45.775390 -111.774693 286 18952ft 375kts
02-Sep-18 18:01 45.807078 -111.918732 286 21250ft 385kts
02-Sep-18 18:02 45.839353 -112.066327 286 23309ft 393kts
02-Sep-18 18:03 45.862180 -112.220321 270 25131ft 400kts
02-Sep-18 18:04 45.862772 -112.381196 270 26792ft 408kts
02-Sep-18 18:05 45.863246 -112.545108 270 28288ft 415kts
02-Sep-18 18:06 45.863493 -112.710426 269 29626ft 422kts
02-Sep-18 18:07 45.863501 -112.879990 269 30844ft 428kts
02-Sep-18 18:08 45.863240 -113.048950 269 32472ft 420kts
02-Sep-18 18:09 45.862751 -113.215110 269 33904ft 415kts
02-Sep-18 18:10 45.862034 -113.379872 269 34091ft 412kts
02-Sep-18 18:11 45.861088 -113.544769 269 34044ft 414kts
02-Sep-18 18:12 45.859905 -113.708598 268 34051ft 414kts
02-Sep-18 18:13 45.858476 -113.873612 268 34056ft 414kts
02-Sep-18 18:14 45.856806 -114.038856 268 34054ft 414kts
02-Sep-18 18:15 45.854901 -114.203867 268 34048ft 414kts
02-Sep-18 18:16 45.852765 -114.368560 268 34043ft 413kts
02-Sep-18 18:17 45.850390 -114.533277 268 34042ft 413kts
02-Sep-18 18:18 45.847796 -114.696985 268 34044ft 414kts
02-Sep-18 18:19 45.844945 -114.861952 268 34086ft 414kts
02-Sep-18 18:20 45.841852 -115.026883 268 34112ft 414kts
02-Sep-18 18:21 45.838532 -115.191483 267 34095ft 414kts
02-Sep-18 18:22 45.834957 -115.356478 267 34096ft 415kts
02-Sep-18 18:23 45.831126 -115.521933 267 34105ft 415kts
02-Sep-18 18:24 45.827092 -115.686032 267 34109ft 415kts
02-Sep-18 18:24 45.823512 -115.824263 267 34111ft 416kts
02-Sep-18 18:26 45.818240 -116.017041 267 34108ft 415kts
02-Sep-18 18:27 45.813471 -116.182022 267 34103ft 415kts
02-Sep-18 18:28 45.808447 -116.347531 267 34100ft 415kts
02-Sep-18 18:28 45.804093 -116.484967 267 34101ft 415kts
02-Sep-18 18:30 45.797762 -116.676180 266 34098ft 415kts
02-Sep-18 18:30 45.793001 -116.813980 266 34066ft 415kts
02-Sep-18 18:31 45.787075 -116.979043 266 34043ft 416kts
02-Sep-18 18:33 45.779829 -117.172496 266 34031ft 418kts
02-Sep-18 18:33 45.774434 -117.311134 266 34050ft 420kts
02-Sep-18 18:34 45.767711 -117.478069 266 34049ft 420kts
02-Sep-18 18:35 45.760759 -117.644639 266 34070ft 420kts
02-Sep-18 18:36 45.753562 -117.811265 265 34067ft 421kts
02-Sep-18 18:37 45.746105 -117.978127 265 34044ft 420kts
02-Sep-18 18:38 45.738433 -118.144371 265 34023ft 420kts
02-Sep-18 18:39 45.730496 -118.311072 265 33929ft 420kts
02-Sep-18 18:40 45.722336 -118.477378 265 32975ft 422kts
02-Sep-18 18:41 45.713846 -118.645457 265 32008ft 425kts
02-Sep-18 18:42 45.705175 -118.812135 265 31067ft 429kts
02-Sep-18 18:43 45.695971 -118.982263 264 30107ft 430kts
02-Sep-18 18:44 45.685928 -119.151353 264 29124ft 423kts
02-Sep-18 18:45 45.675898 -119.316927 264 28132ft 415kts
02-Sep-18 18:46 45.665800 -119.479936 265 27145ft 409kts
02-Sep-18 18:47 45.655599 -119.640857 265 26162ft 404kts
02-Sep-18 18:48 45.645453 -119.797420 264 25200ft 398kts
02-Sep-18 18:50 45.633353 -119.979881 264 24062ft 392kts
02-Sep-18 18:50 45.624584 -120.109221 264 23988ft 394kts
02-Sep-18 18:51 45.613752 -120.265389 264 23977ft 396kts
02-Sep-18 18:52 45.602732 -120.421721 264 23976ft 396kts
02-Sep-18 18:53 45.591611 -120.577552 264 23431ft 393kts
02-Sep-18 18:54 45.580609 -120.728302 263 22476ft 388kts
02-Sep-18 18:55 45.569495 -120.877349 263 20497ft 372kts
02-Sep-18 18:56 45.558571 -121.021522 264 18401ft 359kts
02-Sep-18 18:57 45.547872 -121.160404 264 16345ft 346kts
02-Sep-18 18:59 45.535670 -121.316133 265 14021ft 332kts
02-Sep-18 18:59 45.528701 -121.420243 272 13123ft 303kts
02-Sep-18 19:00 45.529153 -121.537978 272 11526ft 293kts
02-Sep-18 19:01 45.529377 -121.651851 271 10151ft 279kts
02-Sep-18 19:03 45.531636 -121.774716 274 9008ft 264kts
02-Sep-18 19:03 45.534967 -121.865712 274 8323ft 280kts
02-Sep-18 19:04 45.538978 -121.976201 275 7038ft 267kts
02-Sep-18 19:06 45.521571 -122.082963 236 6415ft 238kts
02-Sep-18 19:06 45.489842 -122.146571 236 5950ft 235kts
02-Sep-18 19:07 45.472265 -122.232033 271 5379ft 232kts
02-Sep-18 19:08 45.477336 -122.316001 295 4939ft 189kts
02-Sep-18 19:09 45.499628 -122.375505 300 3694ft 173kts
02-Sep-18 19:10 45.522361 -122.434204 299 2349ft 151kts
02-Sep-18 19:11 45.542179 -122.485259 300 1601ft 145kts
02-Sep-18 19:12 45.561466 -122.534904 300 836ft 141kts
02-Sep-18 19:13 45.579902 -122.582307 299 93ft 131kts
02-Sep-18 19:14 45.588632 -122.602222 341 38ft 23kts
02-Sep-18 19:15 45.591118 -122.598672 120 38ft 14kts
02-Sep-18 19:16 45.590261 -122.598371 212 38ft 0kts
02-Sep-18 19:17 45.590261 -122.598370 212 38ft 0kts
02-Sep-18 19:18 45.590261 -122.598370 212 38ft 0kts
02-Sep-18 19:19 45.590261 -122.598370 212 38ft 0kts
02-Sep-18 19:20 45.590261 -122.598370 212 38ft 0kts
02-Sep-18 19:21 45.590261 -122.598370 212 38ft 0kts
02-Sep-18 19:22 45.590261 -122.598370 212 38ft 0kts
02-Sep-18 19:23 45.590261 -122.598370 212 38ft 0kts
02-Sep-18 19:24 45.590261 -122.598370 212 38ft 0kts
02-Sep-18 19:25 45.590261 -122.598370 212 38ft 0kts
02-Sep-18 19:26 45.590261 -122.598370 212 38ft 0kts
02-Sep-18 19:27 45.590261 -122.598370 212 38ft 0kts
02-Sep-18 19:28 45.590261 -122.598370 212 38ft 0kts

Navigation Log

Ident Type
Flight plan parsing failed, navigation log unavailable